Time;durP1;ratioP1;P1;durP2;ratioP2;P2;SDS_P1;SDS_P2;PMS_P1;PMS_P2;Temp;Humidity;BMP_temperature;BMP_pressure;BME280_temperature;BME280_humidity;BME280_pressure;Samples;Min_cycle;Max_cycle;Signal;HPM_P1;HPM_P2
2022/07/17 00:01:16;;;;;;;1.17;0.60;;;21.90;50.20;;;;;;5013492;28;20200;-51
2022/07/17 00:03:42;;;;;;;1.63;0.90;;;21.90;50.20;;;;;;5012744;28;20263;-54
2022/07/17 00:06:07;;;;;;;1.00;0.70;;;21.90;50.20;;;;;;5013265;28;20298;-47
2022/07/17 00:08:33;;;;;;;1.33;0.88;;;21.90;50.20;;;;;;5013352;28;20604;-53
2022/07/17 00:10:58;;;;;;;1.80;0.80;;;21.90;50.30;;;;;;5012645;28;20183;-55
2022/07/17 00:13:24;;;;;;;2.38;0.90;;;21.90;50.30;;;;;;5013579;28;20187;-53
2022/07/17 00:15:50;;;;;;;2.38;1.08;;;21.90;50.30;;;;;;5013363;28;20238;-52
2022/07/17 00:18:15;;;;;;;3.72;1.02;;;21.90;50.40;;;;;;5012539;28;20176;-51
2022/07/17 00:20:43;;;;;;;3.10;0.93;;;21.90;50.40;;;;;;5013236;28;20199;-52
2022/07/17 00:23:08;;;;;;;2.13;0.80;;;21.90;50.40;;;;;;5013242;28;20184;-50
2022/07/17 00:25:34;;;;;;;2.10;0.80;;;21.90;50.40;;;;;;5012489;28;20180;-53
2022/07/17 00:28:00;;;;;;;1.67;0.90;;;21.90;50.40;;;;;;5012862;28;20212;-53
2022/07/17 00:30:25;;;;;;;2.03;1.08;;;21.90;50.50;;;;;;5013358;28;20180;-50
2022/07/17 00:32:51;;;;;;;2.33;0.75;;;21.90;50.50;;;;;;5012357;28;20180;-52
2022/07/17 00:35:16;;;;;;;2.20;1.08;;;21.90;50.60;;;;;;5013105;28;20168;-53
2022/07/17 00:37:43;;;;;;;1.17;0.77;;;21.90;50.60;;;;;;5012894;28;20183;-53
2022/07/17 00:40:10;;;;;;;1.80;1.17;;;21.90;50.60;;;;;;5012543;28;20181;-52
2022/07/17 00:42:40;;;;;;;1.30;0.68;;;21.80;50.50;;;;;;5013349;28;20199;-51
2022/07/17 00:45:07;;;;;;;1.50;0.98;;;21.80;50.60;;;;;;5013045;28;20176;-49
2022/07/17 00:47:33;;;;;;;1.45;0.60;;;21.80;50.80;;;;;;5011460;28;20219;-53
2022/07/17 00:49:58;;;;;;;1.08;0.70;;;21.90;50.70;;;;;;5011538;28;20638;-51
2022/07/17 00:52:24;;;;;;;1.10;0.77;;;21.80;50.70;;;;;;5013135;28;20176;-52
2022/07/17 00:54:49;;;;;;;1.55;0.88;;;21.80;50.80;;;;;;5012481;28;20180;-55
2022/07/17 00:57:15;;;;;;;1.10;0.60;;;21.80;50.70;;;;;;5011669;28;20172;-51
2022/07/17 00:59:41;;;;;;;1.83;0.77;;;21.80;50.80;;;;;;5012089;28;20165;-51
2022/07/17 01:02:11;;;;;;;1.20;0.63;;;21.80;50.90;;;;;;5012865;28;20184;-50
2022/07/17 01:04:36;;;;;;;1.83;0.82;;;21.80;50.90;;;;;;5012658;28;20176;-49
2022/07/17 01:07:03;;;;;;;0.90;0.77;;;21.80;51.00;;;;;;5011972;28;20187;-51
2022/07/17 01:09:29;;;;;;;2.38;1.00;;;21.80;50.80;;;;;;5012584;28;20627;-54
2022/07/17 01:11:54;;;;;;;1.55;0.90;;;21.80;50.90;;;;;;5012695;28;20177;-54
2022/07/17 01:14:20;;;;;;;1.38;0.80;;;21.80;50.90;;;;;;5012080;28;20180;-52
2022/07/17 01:16:46;;;;;;;2.33;0.90;;;21.80;50.90;;;;;;4995090;28;20541;-55
2022/07/17 01:19:11;;;;;;;1.08;0.88;;;21.70;50.80;;;;;;4995244;28;20183;-49
2022/07/17 01:21:41;;;;;;;1.73;0.70;;;21.80;50.90;;;;;;5012000;28;20176;-50
2022/07/17 01:24:06;;;;;;;2.55;0.88;;;21.80;51.00;;;;;;5012709;28;20184;-53
2022/07/17 01:26:32;;;;;;;2.35;0.70;;;21.70;50.90;;;;;;5012853;28;20173;-53
2022/07/17 01:28:57;;;;;;;2.55;1.10;;;21.70;50.90;;;;;;5011637;28;20216;-54
2022/07/17 01:31:23;;;;;;;1.65;0.60;;;21.70;50.90;;;;;;5012644;28;20187;-56
2022/07/17 01:33:48;;;;;;;2.55;0.80;;;21.70;50.90;;;;;;5012334;28;20187;-56
2022/07/17 01:36:14;;;;;;;0.93;0.80;;;21.70;50.90;;;;;;5011996;28;20172;-56
2022/07/17 01:38:39;;;;;;;0.93;0.82;;;21.70;50.90;;;;;;5012549;28;20168;-55
2022/07/17 01:41:05;;;;;;;1.08;0.73;;;21.70;51.00;;;;;;5012641;28;20519;-53
2022/07/17 01:43:30;;;;;;;1.67;0.80;;;21.70;51.10;;;;;;5012115;28;20215;-54
2022/07/17 01:45:56;;;;;;;1.52;0.85;;;21.70;51.10;;;;;;5012397;28;20258;-52
2022/07/17 01:48:26;;;;;;;1.45;0.80;;;21.70;50.90;;;;;;5012281;28;20256;-55
2022/07/17 01:50:51;;;;;;;2.13;0.90;;;21.70;51.10;;;;;;5011615;28;20177;-55
2022/07/17 01:53:17;;;;;;;2.20;0.80;;;21.70;51.10;;;;;;5012485;28;20180;-57
2022/07/17 01:55:42;;;;;;;2.05;1.00;;;21.70;51.10;;;;;;5012193;28;20172;-54
2022/07/17 01:58:07;;;;;;;1.00;0.80;;;21.70;51.20;;;;;;5013070;28;20184;-57
2022/07/17 02:00:33;;;;;;;1.50;0.85;;;21.60;51.10;;;;;;5016174;28;20177;-60
2022/07/17 02:02:59;;;;;;;1.67;0.80;;;21.70;51.10;;;;;;5014849;28;20172;-52
2022/07/17 02:05:24;;;;;;;1.55;1.08;;;21.70;51.20;;;;;;5015701;28;20220;-53
2022/07/17 02:07:50;;;;;;;2.08;1.08;;;21.70;51.10;;;;;;5015667;28;20240;-54
2022/07/17 02:10:15;;;;;;;1.45;0.98;;;21.70;51.10;;;;;;5015062;28;20548;-50
2022/07/17 02:12:42;;;;;;;1.33;0.75;;;21.60;51.20;;;;;;5015630;28;20177;-55
2022/07/17 02:15:07;;;;;;;1.50;0.80;;;21.60;51.20;;;;;;5015528;28;20176;-49
2022/07/17 02:17:33;;;;;;;1.45;1.00;;;21.60;51.20;;;;;;5014830;28;20183;-52
2022/07/17 02:19:58;;;;;;;1.48;0.90;;;21.60;51.20;;;;;;5015332;28;20181;-53
2022/07/17 02:22:24;;;;;;;1.65;0.80;;;21.60;51.10;;;;;;5015381;28;20204;-53
2022/07/17 02:24:49;;;;;;;2.80;1.30;;;21.60;51.10;;;;;;5014474;28;20184;-54
2022/07/17 02:27:15;;;;;;;0.90;0.77;;;21.60;51.80;;;;;;5015253;28;20215;-49
2022/07/17 02:29:40;;;;;;;1.38;0.90;;;21.60;51.20;;;;;;5015171;28;20180;-49
2022/07/17 02:32:06;;;;;;;2.42;0.80;;;21.60;51.20;;;;;;5014285;28;20627;-50
2022/07/17 02:34:31;;;;;;;2.83;0.90;;;21.60;51.20;;;;;;5015462;28;20172;-51
2022/07/17 02:36:57;;;;;;;2.03;1.00;;;21.60;51.20;;;;;;5015224;28;20181;-53
2022/07/17 02:39:22;;;;;;;2.15;1.05;;;21.60;51.20;;;;;;5014343;28;20578;-54
2022/07/17 02:41:48;;;;;;;3.20;1.02;;;21.60;51.30;;;;;;5014849;28;20643;-51
2022/07/17 02:44:14;;;;;;;1.50;1.10;;;21.60;51.20;;;;;;5015001;28;20176;-53
2022/07/17 02:46:39;;;;;;;1.25;1.00;;;21.60;51.20;;;;;;5014061;28;20181;-52
2022/07/17 02:49:05;;;;;;;1.83;0.80;;;21.50;51.20;;;;;;5014804;28;20204;-51
2022/07/17 02:51:30;;;;;;;0.88;0.73;;;21.50;51.20;;;;;;5014909;28;20525;-55
2022/07/17 02:53:56;;;;;;;1.63;0.73;;;21.50;51.30;;;;;;5014090;28;20650;-54
2022/07/17 02:56:21;;;;;;;1.40;0.85;;;21.50;51.10;;;;;;5014787;28;20634;-54
2022/07/17 02:58:47;;;;;;;1.35;1.02;;;21.50;51.20;;;;;;5014607;28;20179;-55
2022/07/17 03:01:12;;;;;;;1.85;0.95;;;21.50;51.10;;;;;;5013871;28;20184;-56
2022/07/17 03:03:38;;;;;;;1.33;0.93;;;21.50;51.20;;;;;;5014496;28;20187;-51
2022/07/17 03:06:03;;;;;;;3.53;0.85;;;21.50;51.20;;;;;;5014074;28;20224;-54
2022/07/17 03:08:29;;;;;;;1.45;0.77;;;21.50;51.10;;;;;;5014370;28;20208;-50
2022/07/17 03:10:54;;;;;;;2.83;0.90;;;21.50;51.10;;;;;;5013523;28;20173;-53
2022/07/17 03:13:20;;;;;;;2.28;1.20;;;21.50;51.20;;;;;;5013715;28;20268;-54
2022/07/17 03:15:45;;;;;;;1.48;0.70;;;21.50;51.30;;;;;;5014270;28;20259;-56
2022/07/17 03:18:11;;;;;;;2.97;0.90;;;21.50;51.20;;;;;;5014246;28;20271;-56
2022/07/17 03:20:36;;;;;;;2.15;1.33;;;21.50;51.30;;;;;;5013814;28;20180;-55
2022/07/17 03:23:02;;;;;;;1.08;0.93;;;21.50;51.30;;;;;;5014204;28;20635;-52
2022/07/17 03:25:27;;;;;;;1.63;0.77;;;21.40;51.20;;;;;;5014267;28;20650;-54
2022/07/17 03:27:53;;;;;;;1.42;0.88;;;21.40;51.20;;;;;;5013195;28;20223;-53
2022/07/17 03:30:18;;;;;;;1.60;0.90;;;21.40;51.20;;;;;;5014045;28;20187;-50
2022/07/17 03:32:44;;;;;;;1.13;0.90;;;21.40;51.80;;;;;;5013842;28;20180;-55
2022/07/17 03:35:09;;;;;;;3.05;1.27;;;21.40;51.30;;;;;;5013566;28;20165;-55
2022/07/17 03:37:37;;;;;;;2.08;1.08;;;21.40;51.30;;;;;;5013933;28;20172;-56
2022/07/17 03:40:04;;;;;;;1.65;0.93;;;21.40;51.30;;;;;;5013914;28;20184;-52
2022/07/17 03:42:29;;;;;;;0.98;0.88;;;21.40;51.20;;;;;;5013411;28;20183;-55
2022/07/17 03:44:55;;;;;;;0.90;0.90;;;21.40;51.30;;;;;;5013730;28;20168;-54
2022/07/17 03:47:20;;;;;;;1.48;0.70;;;21.40;51.30;;;;;;5013594;28;20626;-55
2022/07/17 03:49:46;;;;;;;1.70;0.90;;;21.40;51.20;;;;;;5012824;28;20623;-54
2022/07/17 03:52:11;;;;;;;0.93;0.90;;;21.40;51.30;;;;;;5013823;28;20176;-55
2022/07/17 03:54:37;;;;;;;1.65;0.93;;;21.40;51.20;;;;;;5013901;28;20180;-55
2022/07/17 03:57:02;;;;;;;1.63;0.70;;;21.40;51.30;;;;;;5012948;28;20177;-55
2022/07/17 03:59:28;;;;;;;1.98;0.90;;;21.40;51.30;;;;;;5013668;28;20180;-55
2022/07/17 04:01:53;;;;;;;1.17;1.00;;;21.40;51.20;;;;;;5013548;28;20260;-55
2022/07/17 04:04:19;;;;;;;1.63;1.00;;;21.40;51.30;;;;;;5012973;28;20658;-55
2022/07/17 04:06:44;;;;;;;1.02;0.93;;;21.40;51.30;;;;;;5013303;28;20686;-56
2022/07/17 04:09:11;;;;;;;1.73;0.90;;;21.40;51.20;;;;;;5013454;28;20250;-58
2022/07/17 04:11:36;;;;;;;1.77;1.20;;;21.30;51.20;;;;;;5012949;28;20803;-55
2022/07/17 04:14:02;;;;;;;1.88;1.00;;;21.30;51.20;;;;;;5013180;28;20176;-52
2022/07/17 04:16:27;;;;;;;1.00;0.70;;;21.40;51.30;;;;;;5012581;28;20662;-52
2022/07/17 04:18:53;;;;;;;2.58;1.10;;;21.40;51.80;;;;;;5013322;28;20173;-51
2022/07/17 04:21:19;;;;;;;1.90;0.88;;;21.40;51.20;;;;;;5013448;28;20610;-50
2022/07/17 04:23:44;;;;;;;1.88;0.90;;;21.40;51.10;;;;;;5012401;28;20535;-50
2022/07/17 04:26:10;;;;;;;1.38;1.00;;;21.40;51.10;;;;;;5013308;28;20177;-51
2022/07/17 04:28:36;;;;;;;1.17;0.85;;;21.40;51.10;;;;;;5013172;28;20216;-53
2022/07/17 04:31:01;;;;;;;1.38;0.90;;;21.40;51.10;;;;;;5012078;28;20182;-47
2022/07/17 04:33:27;;;;;;;2.25;0.95;;;21.40;51.10;;;;;;5013255;28;20187;-49
2022/07/17 04:35:52;;;;;;;1.27;1.02;;;21.40;51.20;;;;;;5013102;28;20192;-49
2022/07/17 04:38:18;;;;;;;1.65;0.80;;;21.40;51.20;;;;;;5012497;28;20278;-49
2022/07/17 04:40:43;;;;;;;1.23;0.90;;;21.40;51.10;;;;;;5013027;28;20177;-50
2022/07/17 04:43:09;;;;;;;2.08;1.15;;;21.40;51.20;;;;;;5012560;28;20184;-48
2022/07/17 04:45:35;;;;;;;0.82;0.80;;;21.40;51.30;;;;;;5012343;28;20172;-50
2022/07/17 04:48:00;;;;;;;1.58;0.80;;;21.40;51.20;;;;;;5012710;28;20216;-51
2022/07/17 04:50:26;;;;;;;2.13;1.13;;;21.40;51.30;;;;;;5013124;28;20169;-53
2022/07/17 04:52:52;;;;;;;1.35;0.73;;;21.40;51.10;;;;;;5012193;28;20181;-55
2022/07/17 04:55:17;;;;;;;1.73;1.17;;;21.40;51.30;;;;;;5013321;28;20323;-54
2022/07/17 04:57:43;;;;;;;1.55;1.33;;;21.40;51.30;;;;;;5012976;28;20199;-53
2022/07/17 05:00:09;;;;;;;1.13;0.80;;;21.40;51.30;;;;;;5012110;28;20176;-48
2022/07/17 05:02:35;;;;;;;2.80;1.20;;;21.40;51.40;;;;;;5012873;28;20653;-55
2022/07/17 05:05:00;;;;;;;1.92;1.20;;;21.40;51.30;;;;;;5012515;28;20244;-54
2022/07/17 05:07:26;;;;;;;0.95;0.85;;;21.40;51.40;;;;;;5012234;28;20303;-55
2022/07/17 05:09:52;;;;;;;1.65;1.08;;;21.40;51.50;;;;;;5012682;28;20173;-54
2022/07/17 05:12:17;;;;;;;2.08;1.08;;;21.40;51.50;;;;;;5012941;28;20306;-54
2022/07/17 05:14:43;;;;;;;2.17;1.23;;;21.40;51.50;;;;;;5011751;28;20180;-53
2022/07/17 05:17:08;;;;;;;1.20;0.90;;;21.40;51.50;;;;;;5012775;28;20250;-51
2022/07/17 05:19:35;;;;;;;1.38;1.10;;;21.40;51.60;;;;;;5012789;28;20608;-48
2022/07/17 05:22:00;;;;;;;1.38;0.85;;;21.40;51.60;;;;;;5011828;28;20195;-56
2022/07/17 05:24:26;;;;;;;2.58;1.30;;;21.40;51.70;;;;;;5012669;28;20177;-55
2022/07/17 05:26:54;;;;;;;0.95;0.85;;;21.40;51.80;;;;;;5011707;28;20207;-52
2022/07/17 05:29:20;;;;;;;2.67;0.90;;;21.40;51.80;;;;;;5012474;28;20212;-55
2022/07/17 05:31:45;;;;;;;1.85;0.98;;;21.40;51.60;;;;;;5012640;28;20173;-55
2022/07/17 05:34:11;;;;;;;1.55;0.90;;;21.40;52.10;;;;;;5014662;28;20208;-55
2022/07/17 05:36:36;;;;;;;0.82;0.80;;;21.40;51.60;;;;;;5016465;28;20180;-52
2022/07/17 05:39:02;;;;;;;2.15;1.00;;;21.40;51.70;;;;;;5016062;28;20215;-54
2022/07/17 05:41:27;;;;;;;1.88;0.93;;;21.40;51.70;;;;;;5015536;28;20188;-54
2022/07/17 05:43:53;;;;;;;1.00;0.88;;;21.40;51.70;;;;;;5015897;28;20196;-56
2022/07/17 05:46:18;;;;;;;1.23;0.90;;;21.40;51.70;;;;;;5016226;28;20190;-51
2022/07/17 05:48:44;;;;;;;1.20;0.90;;;21.40;51.80;;;;;;5015385;28;20215;-55
2022/07/17 05:51:09;;;;;;;0.80;0.80;;;21.40;51.90;;;;;;5016148;28;20230;-55
2022/07/17 05:53:35;;;;;;;0.80;0.65;;;21.40;51.90;;;;;;5015957;28;20643;-55
2022/07/17 05:56:00;;;;;;;1.08;0.82;;;21.40;51.80;;;;;;5015045;28;20188;-54
2022/07/17 05:58:26;;;;;;;1.23;0.80;;;21.40;51.90;;;;;;5015900;28;20181;-55
2022/07/17 06:00:53;;;;;;;1.42;1.02;;;21.40;51.90;;;;;;5015958;28;20278;-55
2022/07/17 06:03:18;;;;;;;1.00;0.90;;;21.40;51.90;;;;;;5015320;28;20202;-54
2022/07/17 06:05:44;;;;;;;3.03;1.08;;;21.40;52.00;;;;;;5015434;28;20702;-55
2022/07/17 06:08:09;;;;;;;1.15;0.93;;;21.40;52.00;;;;;;5015516;28;20641;-56
2022/07/17 06:10:35;;;;;;;1.42;0.95;;;21.40;52.00;;;;;;5015003;28;20706;-56
2022/07/17 06:13:01;;;;;;;1.90;1.10;;;21.40;52.10;;;;;;5015197;28;20181;-56
2022/07/17 06:15:26;;;;;;;2.15;1.45;;;21.40;52.10;;;;;;5015731;28;20172;-56
2022/07/17 06:17:52;;;;;;;1.23;0.88;;;21.40;52.10;;;;;;5014929;28;20499;-57
2022/07/17 06:20:18;;;;;;;0.95;0.90;;;21.40;52.30;;;;;;5015673;28;20204;-60
2022/07/17 06:22:43;;;;;;;1.90;0.90;;;21.30;52.10;;;;;;5015574;28;20176;-57
2022/07/17 06:25:09;;;;;;;1.15;0.88;;;21.40;52.20;;;;;;5014709;28;20238;-51
2022/07/17 06:27:35;;;;;;;1.05;0.80;;;21.40;52.10;;;;;;5015226;28;20267;-53
2022/07/17 06:30:00;;;;;;;1.65;1.10;;;21.40;52.10;;;;;;5015039;28;20647;-53
2022/07/17 06:32:26;;;;;;;2.30;1.13;;;21.40;52.10;;;;;;5014975;28;20185;-53
2022/07/17 06:34:51;;;;;;;1.08;0.82;;;21.40;52.10;;;;;;5015204;28;20577;-48
2022/07/17 06:37:17;;;;;;;1.48;1.00;;;21.40;52.10;;;;;;5014409;28;20172;-53
2022/07/17 06:39:42;;;;;;;2.20;1.00;;;21.40;52.10;;;;;;5014778;28;20176;-55
2022/07/17 06:42:08;;;;;;;1.20;0.73;;;21.50;52.10;;;;;;5014813;28;20828;-55
2022/07/17 06:44:34;;;;;;;1.00;0.82;;;21.40;52.10;;;;;;5013207;28;20177;-55
2022/07/17 06:47:00;;;;;;;1.52;0.80;;;21.40;52.00;;;;;;5014782;28;20173;-55
2022/07/17 06:49:25;;;;;;;1.38;1.10;;;21.50;52.10;;;;;;5014964;28;20627;-52
2022/07/17 06:51:51;;;;;;;1.25;0.85;;;21.50;52.00;;;;;;5013954;28;20182;-50
2022/07/17 06:54:16;;;;;;;2.08;0.85;;;21.50;52.00;;;;;;5014870;28;20191;-54
2022/07/17 06:56:42;;;;;;;2.10;1.17;;;21.50;52.10;;;;;;5014516;28;20588;-52
2022/07/17 06:59:07;;;;;;;0.95;0.85;;;21.50;52.10;;;;;;5014008;28;20659;-55
2022/07/17 07:01:36;;;;;;;2.13;1.17;;;21.50;52.10;;;;;;5014898;28;20714;-55
2022/07/17 07:04:02;;;;;;;1.98;1.77;;;21.50;52.00;;;;;;5014257;28;20243;-55
2022/07/17 07:06:28;;;;;;;2.72;1.17;;;21.50;52.70;;;;;;5013820;28;20683;-55
2022/07/17 07:08:53;;;;;;;1.02;0.80;;;21.50;52.10;;;;;;5014158;28;20220;-52
2022/07/17 07:11:19;;;;;;;2.45;1.20;;;21.50;52.00;;;;;;5014357;28;20210;-55
2022/07/17 07:13:44;;;;;;;2.63;1.27;;;21.60;52.10;;;;;;5013882;28;20180;-49
2022/07/17 07:16:10;;;;;;;3.22;1.23;;;21.60;52.00;;;;;;5014550;28;20165;-54
2022/07/17 07:18:36;;;;;;;1.88;1.13;;;21.60;52.00;;;;;;5014498;28;20173;-55
2022/07/17 07:21:01;;;;;;;4.72;1.25;;;21.60;52.20;;;;;;5013267;28;20188;-54
2022/07/17 07:23:27;;;;;;;5.32;1.45;;;21.60;52.10;;;;;;5014345;28;20185;-52
2022/07/17 07:25:52;;;;;;;3.53;1.58;;;21.60;52.10;;;;;;5013892;28;20184;-48
2022/07/17 07:28:18;;;;;;;1.95;1.13;;;21.60;52.10;;;;;;5013226;28;20220;-46
2022/07/17 07:30:43;;;;;;;2.05;1.30;;;21.70;52.10;;;;;;5014157;28;20176;-49
2022/07/17 07:33:09;;;;;;;2.42;1.20;;;21.70;52.20;;;;;;5014221;28;20185;-49
2022/07/17 07:35:34;;;;;;;2.60;1.30;;;21.70;52.10;;;;;;5013264;28;20168;-55
2022/07/17 07:38:00;;;;;;;4.38;1.20;;;21.70;51.90;;;;;;5013733;28;20181;-47
2022/07/17 07:40:25;;;;;;;4.00;1.17;;;21.70;52.00;;;;;;5013318;28;20709;-47
2022/07/17 07:42:51;;;;;;;4.70;1.65;;;21.80;52.30;;;;;;5013711;28;20172;-52
2022/07/17 07:45:16;;;;;;;3.88;1.20;;;21.80;52.20;;;;;;5014051;28;20168;-49
2022/07/17 07:47:46;;;;;;;3.85;1.48;;;21.70;52.20;;;;;;5013238;28;20300;-51
2022/07/17 07:50:12;;;;;;;2.60;1.20;;;21.70;51.90;;;;;;5013960;28;20184;-51
2022/07/17 07:52:38;;;;;;;4.10;1.30;;;21.70;51.70;;;;;;5013570;28;20179;-51
2022/07/17 07:55:04;;;;;;;2.72;1.17;;;21.70;51.50;;;;;;5012595;28;20180;-48
2022/07/17 07:57:29;;;;;;;2.83;1.25;;;21.70;51.60;;;;;;5013009;28;20180;-50
2022/07/17 07:59:55;;;;;;;4.82;1.30;;;21.80;51.60;;;;;;5013515;28;20173;-53
2022/07/17 08:02:20;;;;;;;4.47;1.20;;;21.80;52.30;;;;;;5012928;28;20527;-54
2022/07/17 08:04:46;;;;;;;3.20;1.63;;;21.80;51.60;;;;;;5013206;28;20183;-53
2022/07/17 08:07:11;;;;;;;3.40;1.77;;;21.80;51.60;;;;;;5013120;28;20223;-48
2022/07/17 08:09:37;;;;;;;2.25;1.10;;;21.80;51.60;;;;;;5012792;28;20246;-54
2022/07/17 08:12:02;;;;;;;2.58;1.30;;;21.80;51.70;;;;;;5012667;28;20702;-53
2022/07/17 08:14:28;;;;;;;2.30;1.27;;;21.80;51.70;;;;;;5013377;28;20386;-54
2022/07/17 08:16:53;;;;;;;2.40;0.98;;;21.90;51.80;;;;;;5012321;28;20165;-53
2022/07/17 08:19:19;;;;;;;9.93;1.50;;;21.90;51.80;;;;;;5013431;28;20181;-50
2022/07/17 08:21:44;;;;;;;5.28;1.70;;;21.90;51.80;;;;;;5013093;28;20187;-51
2022/07/17 08:24:10;;;;;;;5.05;1.20;;;21.90;51.90;;;;;;5012457;28;20176;-54
2022/07/17 08:26:36;;;;;;;5.78;1.40;;;21.90;51.90;;;;;;5013191;28;20172;-54
2022/07/17 08:29:01;;;;;;;4.13;1.50;;;21.90;51.90;;;;;;5012773;28;20216;-53
2022/07/17 08:31:27;;;;;;;3.80;1.25;;;21.90;51.70;;;;;;5012618;28;20247;-52
2022/07/17 08:33:52;;;;;;;6.95;1.45;;;21.90;51.60;;;;;;5012998;28;20176;-49
2022/07/17 08:36:18;;;;;;;3.08;1.50;;;22.00;51.80;;;;;;5013168;28;21012;-51
2022/07/17 08:38:43;;;;;;;4.57;1.73;;;22.00;51.60;;;;;;5011988;28;20172;-50
2022/07/17 08:41:10;;;;;;;4.38;1.60;;;22.00;51.70;;;;;;5012764;28;20519;-50
2022/07/17 08:43:35;;;;;;;4.30;1.38;;;22.00;51.90;;;;;;5013082;28;20191;-50
2022/07/17 08:46:01;;;;;;;2.22;1.20;;;22.00;51.80;;;;;;5012003;28;20328;-47
2022/07/17 08:48:27;;;;;;;3.55;1.35;;;22.00;51.90;;;;;;5012950;28;20757;-54
2022/07/17 08:50:55;;;;;;;2.92;1.00;;;22.00;51.90;;;;;;5010972;28;20177;-48
2022/07/17 08:53:21;;;;;;;3.03;1.17;;;22.10;51.90;;;;;;5012768;28;20176;-50
2022/07/17 08:55:46;;;;;;;3.38;1.38;;;22.10;51.70;;;;;;5012719;28;20243;-49
2022/07/17 08:58:16;;;;;;;2.72;1.20;;;22.10;51.80;;;;;;5012268;28;20211;-47
2022/07/17 09:00:41;;;;;;;3.65;1.23;;;22.10;51.90;;;;;;5012802;28;20226;-51
2022/07/17 09:03:07;;;;;;;3.92;1.08;;;22.10;51.70;;;;;;5012824;28;20263;-48
2022/07/17 09:05:34;;;;;;;1.70;1.05;;;22.10;51.80;;;;;;5011910;28;20228;-51
2022/07/17 09:08:00;;;;;;;2.58;1.30;;;22.10;51.60;;;;;;5013179;28;20212;-53
2022/07/17 09:10:33;;;;;;;3.65;1.50;;;22.10;51.70;;;;;;5016818;28;20176;-53
2022/07/17 09:13:00;;;;;;;6.22;1.58;;;22.20;51.70;;;;;;5015820;28;20240;-53
2022/07/17 09:15:25;;;;;;;4.70;1.35;;;22.20;51.80;;;;;;5016909;28;20180;-51
2022/07/17 09:17:52;;;;;;;1.63;1.10;;;22.20;51.80;;;;;;5016363;28;20192;-47
2022/07/17 09:20:19;;;;;;;7.43;1.48;;;22.20;51.80;;;;;;5015712;28;20179;-52
2022/07/17 09:22:54;;;;;;;4.03;1.95;;;22.20;51.90;;;;;;5016006;28;20189;-52
2022/07/17 09:25:20;;;;;;;3.25;1.58;;;22.20;51.80;;;;;;5016595;28;20184;-49
2022/07/17 09:27:45;;;;;;;4.55;1.08;;;22.20;51.80;;;;;;5014183;28;20203;-51
2022/07/17 09:30:11;;;;;;;3.80;1.10;;;22.20;51.70;;;;;;5016601;28;20275;-52
2022/07/17 09:32:38;;;;;;;2.35;1.35;;;22.20;51.70;;;;;;5016355;28;20172;-52
2022/07/17 09:35:05;;;;;;;4.93;1.45;;;22.20;51.70;;;;;;5015423;28;20191;-48
2022/07/17 09:37:31;;;;;;;3.70;1.52;;;22.20;51.70;;;;;;5016209;28;20521;-52
2022/07/17 09:39:57;;;;;;;3.88;1.17;;;22.20;51.60;;;;;;5015678;28;20204;-49
2022/07/17 09:42:25;;;;;;;2.78;1.23;;;22.20;51.70;;;;;;5016202;28;20172;-54
2022/07/17 09:45:08;;;;;;;3.08;1.50;;;22.20;51.70;;;;;;5016070;28;20215;-50
2022/07/17 09:47:38;;;;;;;3.50;1.38;;;22.30;51.70;;;;;;5015355;28;20295;-51
2022/07/17 09:50:05;;;;;;;3.55;1.60;;;22.30;51.60;;;;;;5015956;28;20589;-49
2022/07/17 09:52:33;;;;;;;3.08;1.30;;;22.30;51.50;;;;;;5015999;28;20578;-50
2022/07/17 09:54:58;;;;;;;2.63;1.20;;;22.30;51.50;;;;;;5015293;28;20590;-49
2022/07/17 09:57:26;;;;;;;3.00;1.30;;;22.30;51.50;;;;;;5016028;28;20204;-54
2022/07/17 09:59:53;;;;;;;2.78;1.20;;;22.30;51.50;;;;;;5015638;28;20586;-46
2022/07/17 10:02:19;;;;;;;6.15;1.83;;;22.30;51.40;;;;;;5015078;28;20192;-52
2022/07/17 10:04:46;;;;;;;2.45;1.05;;;22.30;51.50;;;;;;5015549;28;20173;-54
2022/07/17 10:07:11;;;;;;;2.45;1.10;;;22.30;51.30;;;;;;5015761;28;20184;-54
2022/07/17 10:09:37;;;;;;;4.47;1.50;;;22.30;51.30;;;;;;5015153;28;20177;-54
2022/07/17 10:12:03;;;;;;;2.78;0.80;;;22.40;51.40;;;;;;5015643;28;20172;-55
2022/07/17 10:14:28;;;;;;;2.97;1.38;;;22.30;51.30;;;;;;4998067;28;20662;-52
2022/07/17 10:16:54;;;;;;;2.38;1.30;;;22.40;51.30;;;;;;5014603;28;20253;-53
2022/07/17 10:19:23;;;;;;;2.53;1.23;;;22.40;51.30;;;;;;5013935;28;20534;-52
2022/07/17 10:21:54;;;;;;;2.42;1.10;;;22.40;51.30;;;;;;5015400;28;20172;-51
2022/07/17 10:24:20;;;;;;;5.13;1.50;;;22.40;51.30;;;;;;5014753;28;20176;-54
2022/07/17 10:26:48;;;;;;;2.72;1.00;;;22.40;51.20;;;;;;5015307;28;20188;-51
2022/07/17 10:29:33;;;;;;;2.22;1.15;;;22.40;51.30;;;;;;5014394;28;20208;-53
2022/07/17 10:31:59;;;;;;;3.72;1.20;;;22.40;51.20;;;;;;5015373;28;20180;-53
2022/07/17 10:34:38;;;;;;;2.90;1.05;;;22.40;51.10;;;;;;5015397;28;20223;-54
2022/07/17 10:37:14;;;;;;;4.57;1.52;;;22.40;51.10;;;;;;5014455;28;20172;-53
2022/07/17 10:39:40;;;;;;;1.95;1.23;;;22.40;51.10;;;;;;5014909;28;20184;-52
2022/07/17 10:42:05;;;;;;;1.95;1.20;;;22.50;51.10;;;;;;5015260;28;20183;-50
2022/07/17 10:44:31;;;;;;;2.22;0.90;;;22.50;51.10;;;;;;5014594;28;20183;-51
2022/07/17 10:46:57;;;;;;;1.90;0.90;;;22.50;51.00;;;;;;5014952;28;20169;-49
2022/07/17 10:49:23;;;;;;;2.35;1.15;;;22.50;51.00;;;;;;5014898;28;20219;-53
2022/07/17 10:51:50;;;;;;;2.13;1.50;;;22.50;51.00;;;;;;5014018;28;20682;-53
2022/07/17 10:54:15;;;;;;;2.45;1.08;;;22.50;51.00;;;;;;5014698;28;20663;-50
2022/07/17 10:56:41;;;;;;;3.00;1.25;;;22.50;51.60;;;;;;5014849;28;20179;-52
2022/07/17 10:59:06;;;;;;;2.00;0.90;;;22.50;50.90;;;;;;5014123;28;20187;-49
2022/07/17 11:01:32;;;;;;;2.33;1.00;;;22.50;51.00;;;;;;5014742;28;20165;-52
2022/07/17 11:03:59;;;;;;;2.95;1.08;;;22.50;50.90;;;;;;5014477;28;20223;-50
2022/07/17 11:06:30;;;;;;;2.10;0.95;;;22.50;50.90;;;;;;5013861;28;20239;-53
2022/07/17 11:09:16;;;;;;;1.40;0.90;;;22.50;50.80;;;;;;5014325;28;20216;-54
2022/07/17 11:11:49;;;;;;;3.92;1.10;;;22.60;50.80;;;;;;5013528;28;20295;-51
2022/07/17 11:14:22;;;;;;;0.75;0.70;;;22.50;50.70;;;;;;5014562;28;20189;-53
2022/07/17 11:16:58;;;;;;;2.78;0.88;;;22.60;50.80;;;;;;5014161;28;20631;-55
2022/07/17 11:19:33;;;;;;;2.20;1.38;;;22.60;50.70;;;;;;5013586;28;20652;-48
2022/07/17 11:22:02;;;;;;;1.77;1.00;;;22.60;50.70;;;;;;5014058;28;20553;-50
2022/07/17 11:24:44;;;;;;;1.83;0.95;;;22.60;50.70;;;;;;5014352;28;20184;-48
2022/07/17 11:27:11;;;;;;;1.80;0.90;;;22.60;50.70;;;;;;5013356;28;20176;-51
2022/07/17 11:29:37;;;;;;;2.65;0.93;;;22.60;50.50;;;;;;5014113;28;20176;-52
2022/07/17 11:32:03;;;;;;;1.13;0.77;;;22.50;50.50;;;;;;5013486;28;20533;-46
2022/07/17 11:34:29;;;;;;;2.10;1.08;;;22.60;50.50;;;;;;5013316;28;20188;-50
2022/07/17 11:36:59;;;;;;;1.65;1.05;;;22.60;50.40;;;;;;5014106;28;20196;-47
2022/07/17 11:39:24;;;;;;;2.05;0.85;;;22.60;50.40;;;;;;5014248;28;20176;-51
2022/07/17 11:41:52;;;;;;;1.73;0.98;;;22.60;50.40;;;;;;5011949;28;20203;-49
2022/07/17 11:44:19;;;;;;;1.77;1.05;;;22.60;50.30;;;;;;5013899;28;20177;-51
2022/07/17 11:46:46;;;;;;;3.13;0.90;;;22.60;50.10;;;;;;5011848;28;20191;-50
2022/07/17 11:49:22;;;;;;;1.60;1.23;;;22.70;50.20;;;;;;5013881;28;20266;-49
2022/07/17 11:51:48;;;;;;;1.77;1.17;;;22.60;50.10;;;;;;5013800;28;20176;-48
2022/07/17 11:54:15;;;;;;;1.58;1.25;;;22.70;50.20;;;;;;5013010;28;20186;-50
2022/07/17 11:56:42;;;;;;;1.20;0.90;;;22.60;50.10;;;;;;5013545;28;20191;-53
2022/07/17 11:59:08;;;;;;;1.20;0.88;;;22.60;49.90;;;;;;5013500;28;20211;-46
2022/07/17 12:01:43;;;;;;;1.17;1.08;;;22.70;49.90;;;;;;5013309;28;20183;-48
2022/07/17 12:04:11;;;;;;;1.23;1.00;;;22.60;49.80;;;;;;5013589;28;20190;-49
2022/07/17 12:06:37;;;;;;;2.05;1.42;;;22.60;49.70;;;;;;5013661;28;20228;-51
2022/07/17 12:09:03;;;;;;;1.45;1.00;;;22.70;49.80;;;;;;5012723;28;20690;-52
2022/07/17 12:11:29;;;;;;;1.23;0.93;;;22.60;49.70;;;;;;5013596;28;20259;-50
2022/07/17 12:13:54;;;;;;;1.63;0.70;;;22.60;49.60;;;;;;5013241;28;20176;-50
2022/07/17 12:16:30;;;;;;;2.95;0.90;;;22.70;49.60;;;;;;5011501;28;20227;-51
2022/07/17 12:19:02;;;;;;;1.65;0.95;;;22.60;49.50;;;;;;5013530;28;20203;-50
2022/07/17 12:21:27;;;;;;;2.30;0.90;;;22.70;49.50;;;;;;4995750;28;20184;-51
2022/07/17 12:24:04;;;;;;;1.73;0.90;;;22.70;49.50;;;;;;5011039;28;20184;-52
2022/07/17 12:26:30;;;;;;;1.30;0.90;;;22.70;49.40;;;;;;5013575;28;20177;-48
2022/07/17 12:28:55;;;;;;;2.05;0.90;;;22.70;49.40;;;;;;5012416;28;20208;-52
2022/07/17 12:31:23;;;;;;;1.35;0.90;;;22.70;49.30;;;;;;5013293;28;20199;-52
2022/07/17 12:33:49;;;;;;;1.63;0.90;;;22.70;49.30;;;;;;5013106;28;20177;-49
2022/07/17 12:36:15;;;;;;;1.55;0.82;;;22.70;49.20;;;;;;5012357;28;20203;-54
2022/07/17 12:38:40;;;;;;;1.20;0.90;;;22.70;49.10;;;;;;5012897;28;20643;-54
2022/07/17 12:41:06;;;;;;;0.80;0.80;;;22.70;49.20;;;;;;5012938;28;20223;-51
2022/07/17 12:43:31;;;;;;;1.75;0.98;;;22.70;49.20;;;;;;5011372;28;20218;-53